createdAt,value
2023-05-15T00:00:59.910Z,47.89
2023-05-15T00:03:39.669Z,47.94
2023-05-15T00:06:16.420Z,48.07
2023-05-15T00:08:54.104Z,47.91
2023-05-15T00:11:30.701Z,47.87
2023-05-15T00:14:08.599Z,47.80
2023-05-15T00:16:45.994Z,47.91
2023-05-15T00:19:25.472Z,47.86
2023-05-15T00:22:02.294Z,47.95
2023-05-15T00:24:42.703Z,47.85
2023-05-15T00:27:19.840Z,47.57
2023-05-15T00:29:55.474Z,47.73
2023-05-15T00:32:33.200Z,47.87
2023-05-15T00:35:11.325Z,47.82
2023-05-15T00:37:47.894Z,47.75
2023-05-15T00:40:28.717Z,47.83
2023-05-15T00:43:05.310Z,47.81
2023-05-15T00:45:41.334Z,47.78
2023-05-15T00:48:20.083Z,47.77
2023-05-15T00:51:00.268Z,47.64
2023-05-15T00:53:35.796Z,47.55
2023-05-15T00:56:13.225Z,47.65
2023-05-15T00:58:52.957Z,47.71
2023-05-15T01:01:28.253Z,47.71
2023-05-15T01:04:06.598Z,47.71
2023-05-15T01:06:44.298Z,47.58
2023-05-15T01:09:21.823Z,47.74
2023-05-15T01:12:03.725Z,47.61
2023-05-15T01:14:41.130Z,47.52
2023-05-15T01:17:16.701Z,47.49
2023-05-15T01:19:56.645Z,47.40
2023-05-15T01:22:50.383Z,47.45
2023-05-15T01:25:56.602Z,47.35
2023-05-15T01:28:40.745Z,47.39
2023-05-15T01:31:23.431Z,47.54
2023-05-15T01:34:04.457Z,47.51
2023-05-15T01:36:49.255Z,47.45
2023-05-15T01:39:31.530Z,47.57
2023-05-15T01:42:12.168Z,47.50
2023-05-15T01:44:55.113Z,47.48
2023-05-15T01:47:36.557Z,47.53
2023-05-15T01:50:17.588Z,47.51
2023-05-15T01:52:55.783Z,47.49
2023-05-15T01:55:33.487Z,47.67
2023-05-15T01:58:21.648Z,47.67
2023-05-15T02:01:00.313Z,47.58
2023-05-15T02:03:41.092Z,47.77
2023-05-15T02:06:21.455Z,47.89
2023-05-15T02:08:57.163Z,48.01
2023-05-15T02:11:33.233Z,48.10
2023-05-15T02:14:11.454Z,48.19
2023-05-15T02:16:51.994Z,48.17
2023-05-15T02:19:28.151Z,48.21
2023-05-15T02:22:06.716Z,48.42
2023-05-15T02:24:44.903Z,48.38
2023-05-15T02:27:27.254Z,48.70
2023-05-15T02:30:18.928Z,48.76
2023-05-15T02:33:10.569Z,48.64
2023-05-15T02:35:55.509Z,48.90
2023-05-15T02:38:36.651Z,48.84
2023-05-15T02:41:15.383Z,48.80
2023-05-15T02:44:02.620Z,48.74
2023-05-15T02:46:42.315Z,48.81
2023-05-15T02:49:19.179Z,48.73
2023-05-15T02:51:55.432Z,48.79
2023-05-15T02:54:32.448Z,48.66
2023-05-15T02:57:08.926Z,48.67
2023-05-15T02:59:44.945Z,48.66
2023-05-15T03:02:21.476Z,48.54
2023-05-15T03:04:57.927Z,48.70
2023-05-15T03:07:32.552Z,48.71
2023-05-15T03:10:10.256Z,48.70
2023-05-15T03:12:44.697Z,48.56
2023-05-15T03:15:21.656Z,48.69
2023-05-15T03:17:57.750Z,48.69
2023-05-15T03:20:37.334Z,48.70
2023-05-15T03:23:17.019Z,48.70
2023-05-15T03:25:53.363Z,48.93
2023-05-15T03:28:29.254Z,49.02
2023-05-15T03:31:06.493Z,49.21
2023-05-15T03:33:46.533Z,49.21
2023-05-15T03:36:23.591Z,49.34
2023-05-15T03:38:59.540Z,49.38
2023-05-15T03:41:35.650Z,49.41
2023-05-15T03:44:10.854Z,49.56
2023-05-15T03:46:50.923Z,49.68
2023-05-15T03:49:26.149Z,49.61
2023-05-15T03:52:04.405Z,49.63
2023-05-15T03:54:41.530Z,49.77
2023-05-15T03:57:18.753Z,49.81
2023-05-15T03:59:56.455Z,49.85
2023-05-15T04:02:33.852Z,49.99
2023-05-15T04:05:14.078Z,49.80
2023-05-15T04:07:48.678Z,49.89
2023-05-15T04:10:24.965Z,50.03
2023-05-15T04:13:04.392Z,50.04
2023-05-15T04:15:41.395Z,50.09
2023-05-15T04:18:18.630Z,50.17
2023-05-15T04:20:56.507Z,50.18
2023-05-15T04:23:32.248Z,50.09
2023-05-15T04:26:06.927Z,50.18
2023-05-15T04:28:56.166Z,50.35
2023-05-15T04:31:41.098Z,50.41
2023-05-15T04:34:16.045Z,50.63
2023-05-15T04:36:55.116Z,50.64
2023-05-15T04:39:32.013Z,50.82
2023-05-15T04:42:12.322Z,51.13
2023-05-15T04:44:49.577Z,51.62
2023-05-15T04:47:26.954Z,51.95
2023-05-15T04:50:03.908Z,52.09
2023-05-15T04:52:38.950Z,52.24
2023-05-15T04:55:15.876Z,52.26
2023-05-15T04:57:53.473Z,52.35
2023-05-15T05:00:31.577Z,52.37
2023-05-15T05:03:10.201Z,52.11
2023-05-15T05:05:46.640Z,52.38
2023-05-15T05:08:21.430Z,52.92
2023-05-15T05:11:01.730Z,53.33
2023-05-15T05:13:38.377Z,53.87
2023-05-15T05:16:14.686Z,54.11
2023-05-15T05:18:52.719Z,54.10
2023-05-15T05:21:29.350Z,54.81
2023-05-15T05:24:06.165Z,55.71
2023-05-15T05:26:41.627Z,56.30
2023-05-15T05:29:19.152Z,56.88
2023-05-15T05:31:57.194Z,57.26
2023-05-15T05:34:34.366Z,57.78
2023-05-15T05:37:13.442Z,58.67
2023-05-15T05:39:47.971Z,58.89
2023-05-15T05:42:34.728Z,59.03
2023-05-15T05:45:21.045Z,59.31
2023-05-15T05:47:59.384Z,59.84
2023-05-15T05:50:36.817Z,60.19
2023-05-15T05:53:14.290Z,60.57
2023-05-15T05:55:50.604Z,60.77
2023-05-15T05:58:27.571Z,60.88
2023-05-15T06:01:06.722Z,60.77
2023-05-15T06:03:45.370Z,61.33
2023-05-15T06:06:22.750Z,61.26
2023-05-15T06:09:03.122Z,61.21
2023-05-15T06:11:39.928Z,61.54
2023-05-15T06:14:18.193Z,62.21
2023-05-15T06:16:59.334Z,62.26
2023-05-15T06:19:36.529Z,62.45
2023-05-15T06:22:13.100Z,62.57
2023-05-15T06:24:52.626Z,62.75
2023-05-15T06:27:35.373Z,63.16
2023-05-15T06:30:23.647Z,63.20
2023-05-15T06:33:07.013Z,64.02
2023-05-15T06:35:50.187Z,64.35
2023-05-15T06:38:48.469Z,65.15
2023-05-15T06:41:24.848Z,65.04
2023-05-15T06:44:02.184Z,65.57
2023-05-15T06:46:37.985Z,65.67
2023-05-15T06:49:19.288Z,65.95
2023-05-15T06:52:03.615Z,65.97
2023-05-15T06:54:43.410Z,66.57
2023-05-15T06:57:20.383Z,66.77
2023-05-15T07:00:03.963Z,67.03
2023-05-15T07:02:44.203Z,67.67
2023-05-15T07:05:25.223Z,67.95
2023-05-15T07:08:04.510Z,67.76
2023-05-15T07:10:43.623Z,68.02
2023-05-15T07:13:23.352Z,68.10
2023-05-15T07:16:05.664Z,68.20
2023-05-15T07:18:44.667Z,68.48
2023-05-15T07:21:22.115Z,68.42
2023-05-15T07:23:58.659Z,68.37
2023-05-15T07:26:59.152Z,68.46
2023-05-15T07:29:38.744Z,69.09
2023-05-15T07:32:21.513Z,69.38
2023-05-15T07:35:00.622Z,69.39
2023-05-15T07:37:40.498Z,69.35
2023-05-15T07:40:25.915Z,69.21
2023-05-15T07:43:02.512Z,69.52
2023-05-15T07:45:38.795Z,69.67
2023-05-15T07:48:22.062Z,70.01
2023-05-15T07:50:59.629Z,70.14
2023-05-15T07:53:39.971Z,70.51
2023-05-15T07:56:17.867Z,70.66
2023-05-15T07:58:58.056Z,70.87
2023-05-15T08:01:37.976Z,71.50
2023-05-15T08:04:18.171Z,71.58
2023-05-15T08:06:57.247Z,71.55
2023-05-15T08:09:38.766Z,71.70
2023-05-15T08:12:26.839Z,71.76
2023-05-15T08:15:09.984Z,72.12
2023-05-15T08:17:48.743Z,72.41
2023-05-15T08:20:25.798Z,72.07
2023-05-15T08:23:09.441Z,72.09
2023-05-15T08:25:44.612Z,71.50
2023-05-15T08:28:23.765Z,71.59
2023-05-15T08:31:01.603Z,71.62
2023-05-15T08:33:38.304Z,71.59
2023-05-15T08:36:22.995Z,71.13
2023-05-15T08:39:00.701Z,71.16
2023-05-15T08:41:51.042Z,70.72
2023-05-15T08:44:33.291Z,70.18
2023-05-15T08:47:12.775Z,70.15
2023-05-15T08:50:06.008Z,70.02
2023-05-15T08:52:44.684Z,70.17
2023-05-15T08:55:26.586Z,70.27
2023-05-15T08:58:07.687Z,70.54
2023-05-15T09:00:45.674Z,70.85
2023-05-15T09:03:27.028Z,71.28
2023-05-15T09:06:03.849Z,71.60
2023-05-15T09:08:40.900Z,71.58
2023-05-15T09:11:24.150Z,72.09
2023-05-15T09:14:01.624Z,72.28
2023-05-15T09:16:40.758Z,72.35
2023-05-15T09:19:16.944Z,72.48
2023-05-15T09:22:01.186Z,72.89
2023-05-15T09:24:45.986Z,73.15
2023-05-15T09:27:22.348Z,73.04
2023-05-15T09:30:12.499Z,73.43
2023-05-15T09:32:55.518Z,73.58
2023-05-15T09:35:34.559Z,73.83
2023-05-15T09:38:16.801Z,73.91
2023-05-15T09:41:13.934Z,74.00
2023-05-15T09:43:54.903Z,73.83
2023-05-15T09:46:39.906Z,73.88
2023-05-15T09:49:15.787Z,73.71
2023-05-15T09:52:05.498Z,73.73
2023-05-15T09:54:47.503Z,73.97
2023-05-15T09:57:34.535Z,74.39
2023-05-15T10:00:32.075Z,74.67
2023-05-15T10:03:12.561Z,74.93
2023-05-15T10:05:47.945Z,75.74
2023-05-15T10:08:30.034Z,75.66
2023-05-15T10:11:14.783Z,75.90
2023-05-15T10:14:08.214Z,76.24
2023-05-15T10:16:47.983Z,76.26
2023-05-15T10:19:30.319Z,76.55
2023-05-15T10:22:14.575Z,76.65
2023-05-15T10:25:00.368Z,76.91
2023-05-15T10:27:40.887Z,77.12
2023-05-15T10:30:20.449Z,77.22
2023-05-15T10:32:59.319Z,77.74
2023-05-15T10:35:34.769Z,77.52
2023-05-15T10:38:13.026Z,77.80
2023-05-15T10:40:48.799Z,77.97
2023-05-15T10:43:37.238Z,78.10
2023-05-15T10:46:12.210Z,78.17
2023-05-15T10:48:49.811Z,78.29
2023-05-15T10:51:31.617Z,78.24
2023-05-15T10:54:11.462Z,78.55
2023-05-15T10:56:52.479Z,78.65
2023-05-15T10:59:36.444Z,78.94
2023-05-15T11:02:29.738Z,79.41
2023-05-15T11:05:13.034Z,79.72
2023-05-15T11:08:29.886Z,79.84
2023-05-15T11:11:08.235Z,79.96
2023-05-15T11:14:16.878Z,79.93
2023-05-15T11:17:05.934Z,80.12
2023-05-15T11:19:58.774Z,80.36
2023-05-15T11:22:37.158Z,80.83
2023-05-15T11:25:17.898Z,80.74
2023-05-15T11:27:59.871Z,81.26
2023-05-15T11:30:44.542Z,81.24
2023-05-15T11:33:21.142Z,81.30
2023-05-15T11:36:03.072Z,81.37
2023-05-15T11:38:44.101Z,81.57
2023-05-15T11:41:28.176Z,81.76
2023-05-15T11:44:05.920Z,81.99
2023-05-15T11:46:40.722Z,82.22
2023-05-15T11:49:16.976Z,82.40
2023-05-15T11:51:54.944Z,82.65
2023-05-15T11:54:30.207Z,82.50
2023-05-15T11:57:09.083Z,82.50
2023-05-15T11:59:47.001Z,82.70
2023-05-15T12:02:25.527Z,82.49
2023-05-15T12:05:00.142Z,82.63
2023-05-15T12:07:38.602Z,82.56
2023-05-15T12:10:16.034Z,82.42
2023-05-15T12:12:51.325Z,82.61
2023-05-15T12:15:28.515Z,82.84
2023-05-15T12:18:09.995Z,82.71
2023-05-15T12:20:50.501Z,82.80
2023-05-15T12:23:27.348Z,82.75
2023-05-15T12:26:05.221Z,82.81
2023-05-15T12:28:41.061Z,82.77
2023-05-15T12:31:18.233Z,82.91
2023-05-15T12:33:52.991Z,82.90
2023-05-15T12:36:30.083Z,82.95
2023-05-15T12:39:10.986Z,83.03
2023-05-15T12:41:47.796Z,83.25
2023-05-15T12:44:27.861Z,83.18
2023-05-15T12:47:07.730Z,83.28
2023-05-15T12:49:44.055Z,83.48
2023-05-15T12:52:20.950Z,83.48
2023-05-15T12:54:57.644Z,83.50
2023-05-15T12:57:36.275Z,83.65
2023-05-15T13:00:16.746Z,83.72
2023-05-15T13:02:54.686Z,83.88
2023-05-15T13:05:36.968Z,83.94
2023-05-15T13:08:19.718Z,84.03
2023-05-15T13:11:01.604Z,84.18
2023-05-15T13:13:51.935Z,83.99
2023-05-15T13:16:39.352Z,84.05
2023-05-15T13:19:16.275Z,84.15
2023-05-15T13:21:56.859Z,83.99
2023-05-15T13:24:32.987Z,83.92
2023-05-15T13:27:07.974Z,83.91
2023-05-15T13:29:42.762Z,83.77
2023-05-15T13:32:18.158Z,83.95
2023-05-15T13:34:59.471Z,83.99
2023-05-15T13:37:35.730Z,84.14
2023-05-15T13:40:17.320Z,84.17
2023-05-15T13:42:51.721Z,84.30
2023-05-15T13:45:27.648Z,84.38
2023-05-15T13:48:04.834Z,84.50
2023-05-15T13:50:44.561Z,84.53
2023-05-15T13:53:20.123Z,84.74
2023-05-15T13:56:05.091Z,84.71
2023-05-15T13:58:43.066Z,84.86
2023-05-15T14:01:18.932Z,84.97
2023-05-15T14:04:13.408Z,84.87
2023-05-15T14:06:49.160Z,84.99
2023-05-15T14:09:28.539Z,85.02
2023-05-15T14:12:02.469Z,84.91
2023-05-15T14:14:37.575Z,84.87
2023-05-15T14:17:14.091Z,85.08
2023-05-15T14:19:52.522Z,85.18
2023-05-15T14:22:27.851Z,85.30
2023-05-15T14:25:04.502Z,85.09
2023-05-15T14:27:42.694Z,85.42
2023-05-15T14:30:20.811Z,85.56
2023-05-15T14:33:03.062Z,85.57
2023-05-15T14:35:41.153Z,85.60
2023-05-15T14:38:26.101Z,85.55
2023-05-15T14:41:04.207Z,85.56
2023-05-15T14:43:44.616Z,85.62
2023-05-15T14:46:26.400Z,85.78
2023-05-15T14:49:06.388Z,85.93
2023-05-15T14:51:43.914Z,85.97
2023-05-15T14:54:21.151Z,86.21
2023-05-15T14:56:57.911Z,86.27
2023-05-15T14:59:42.753Z,86.28
2023-05-15T15:02:21.096Z,86.15
2023-05-15T15:04:58.847Z,86.12
2023-05-15T15:07:51.690Z,86.14
2023-05-15T15:10:27.372Z,86.28
2023-05-15T15:13:06.444Z,86.23
2023-05-15T15:15:44.822Z,86.12
2023-05-15T15:18:22.934Z,86.04
2023-05-15T15:21:00.486Z,86.15
2023-05-15T15:23:36.805Z,86.05
2023-05-15T15:26:13.678Z,86.20
2023-05-15T15:28:48.945Z,86.23
2023-05-15T15:31:24.217Z,86.32
2023-05-15T15:34:04.428Z,86.17
2023-05-15T15:36:42.054Z,86.18
2023-05-15T15:39:17.485Z,86.19
2023-05-15T15:41:54.561Z,86.34
2023-05-15T15:44:29.166Z,86.31
2023-05-15T15:47:06.931Z,86.43
2023-05-15T15:49:44.335Z,86.42
2023-05-15T15:52:20.286Z,86.46
2023-05-15T15:54:56.777Z,86.50
2023-05-15T15:57:33.447Z,86.43
2023-05-15T16:00:12.464Z,86.61
2023-05-15T16:02:49.472Z,86.41
2023-05-15T16:05:24.171Z,86.39
2023-05-15T16:08:01.685Z,86.50
2023-05-15T16:10:37.138Z,86.54
2023-05-15T16:13:12.011Z,86.39
2023-05-15T16:15:47.441Z,86.36
2023-05-15T16:18:23.421Z,86.22
2023-05-15T16:20:59.280Z,86.38
2023-05-15T16:23:39.376Z,86.45
2023-05-15T16:26:15.197Z,86.47
2023-05-15T16:28:50.329Z,86.65
2023-05-15T16:31:26.788Z,86.65
2023-05-15T16:34:04.713Z,86.74
2023-05-15T16:36:43.498Z,86.68
2023-05-15T16:39:19.292Z,86.64
2023-05-15T16:41:59.516Z,86.76
2023-05-15T16:44:35.399Z,86.66
2023-05-15T16:47:09.101Z,86.67
2023-05-15T16:49:45.336Z,87.01
2023-05-15T16:52:21.949Z,87.26
2023-05-15T16:54:57.489Z,87.65
2023-05-15T16:57:32.332Z,87.84
2023-05-15T17:00:13.052Z,87.88
2023-05-15T17:02:51.449Z,88.16
2023-05-15T17:05:26.425Z,88.45
2023-05-15T17:08:02.885Z,88.43
2023-05-15T17:10:39.140Z,88.51
2023-05-15T17:13:14.329Z,88.42
2023-05-15T17:15:50.901Z,88.29
2023-05-15T17:18:27.239Z,88.11
2023-05-15T17:21:03.428Z,88.06
2023-05-15T17:23:38.561Z,88.05
2023-05-15T17:26:14.292Z,87.93
2023-05-15T17:28:50.328Z,88.09
2023-05-15T17:31:27.467Z,88.07
2023-05-15T17:34:02.332Z,87.80
2023-05-15T17:36:37.151Z,87.70
2023-05-15T17:39:12.941Z,87.78
2023-05-15T17:41:51.060Z,87.57
2023-05-15T17:44:29.970Z,87.64
2023-05-15T17:47:05.882Z,87.60
2023-05-15T17:49:39.772Z,87.53
2023-05-15T17:52:14.283Z,87.51
2023-05-15T17:54:48.335Z,87.28
2023-05-15T17:57:23.332Z,87.16
2023-05-15T17:59:58.729Z,87.02
2023-05-15T18:02:33.692Z,87.01
2023-05-15T18:05:12.247Z,86.96
2023-05-15T18:07:50.378Z,86.83
2023-05-15T18:10:28.460Z,86.48
2023-05-15T18:13:05.528Z,86.41
2023-05-15T18:15:51.804Z,86.30
2023-05-15T18:18:29.712Z,86.22
2023-05-15T18:21:09.833Z,85.82
2023-05-15T18:24:10.849Z,85.75
2023-05-15T18:26:52.400Z,85.67
2023-05-15T18:29:34.641Z,85.58
2023-05-15T18:32:15.900Z,85.38
2023-05-15T18:34:55.937Z,85.62
2023-05-15T18:37:55.746Z,85.63
2023-05-15T18:40:35.088Z,85.68
2023-05-15T18:43:12.054Z,85.86
2023-05-15T18:45:49.751Z,85.92
2023-05-15T18:48:25.435Z,85.92
2023-05-15T18:51:00.735Z,86.04
2023-05-15T18:53:39.778Z,85.94
2023-05-15T18:56:16.445Z,85.99
2023-05-15T18:58:53.229Z,85.90
2023-05-15T19:01:46.569Z,85.66
2023-05-15T19:04:23.537Z,85.74
2023-05-15T19:07:18.188Z,85.80
2023-05-15T19:09:57.415Z,85.80
2023-05-15T19:12:41.996Z,85.93
2023-05-15T19:15:20.482Z,86.27
2023-05-15T19:17:57.645Z,86.22
2023-05-15T19:20:37.067Z,86.69
2023-05-15T19:23:16.288Z,86.88
2023-05-15T19:25:54.805Z,86.97
2023-05-15T19:28:33.435Z,86.95
2023-05-15T19:31:17.087Z,87.08
2023-05-15T19:34:09.036Z,87.15
2023-05-15T19:36:50.321Z,87.25
2023-05-15T19:39:24.302Z,87.58
2023-05-15T19:42:03.581Z,87.34
2023-05-15T19:44:40.051Z,87.54
2023-05-15T19:47:15.772Z,87.44
2023-05-15T19:49:51.144Z,87.61
2023-05-15T19:52:27.335Z,87.62
2023-05-15T19:55:19.151Z,87.70
2023-05-15T19:57:58.966Z,87.60
2023-05-15T20:00:34.744Z,87.94
2023-05-15T20:03:11.536Z,88.21
2023-05-15T20:05:52.754Z,88.23
2023-05-15T20:08:27.853Z,88.29
2023-05-15T20:11:08.480Z,88.14
2023-05-15T20:13:43.225Z,88.26
2023-05-15T20:16:22.530Z,88.41
2023-05-15T20:19:00.387Z,88.42
2023-05-15T20:21:44.794Z,88.62
2023-05-15T20:24:20.620Z,88.57
2023-05-15T20:26:56.056Z,88.37
2023-05-15T20:29:32.997Z,88.43
2023-05-15T20:32:09.547Z,88.65
2023-05-15T20:34:48.526Z,88.72
2023-05-15T20:37:28.077Z,88.87
2023-05-15T20:40:13.509Z,88.72
2023-05-15T20:42:48.228Z,88.89
2023-05-15T20:45:25.732Z,88.75
2023-05-15T20:48:02.223Z,88.81
2023-05-15T20:50:38.822Z,88.74
2023-05-15T20:53:18.045Z,89.04
2023-05-15T20:55:55.060Z,89.12
2023-05-15T20:58:30.510Z,89.23
2023-05-15T21:01:14.754Z,89.48
2023-05-15T21:03:58.854Z,89.56
2023-05-15T21:06:34.846Z,89.67
2023-05-15T21:09:12.538Z,89.62
2023-05-15T21:11:49.741Z,89.59
2023-05-15T21:14:25.983Z,89.63
2023-05-15T21:17:09.704Z,89.72
2023-05-15T21:19:48.649Z,89.53
2023-05-15T21:22:25.015Z,89.61
2023-05-15T21:25:00.655Z,89.61
2023-05-15T21:27:38.123Z,89.64
2023-05-15T21:30:17.418Z,89.83
2023-05-15T21:32:54.008Z,89.80
2023-05-15T21:35:29.752Z,89.92
2023-05-15T21:38:04.099Z,89.97
2023-05-15T21:40:40.101Z,89.95
2023-05-15T21:43:15.714Z,89.87
2023-05-15T21:45:52.959Z,89.90
2023-05-15T21:48:32.197Z,89.84
2023-05-15T21:51:09.872Z,90.05
2023-05-15T21:53:44.189Z,89.92
2023-05-15T21:56:19.378Z,90.16
2023-05-15T21:59:01.177Z,90.04
2023-05-15T22:01:38.300Z,90.15
2023-05-15T22:04:14.082Z,90.14
2023-05-15T22:07:08.347Z,90.15
2023-05-15T22:09:53.313Z,90.03
2023-05-15T22:12:28.993Z,90.02
2023-05-15T22:15:06.480Z,89.96
2023-05-15T22:17:44.701Z,89.89
2023-05-15T22:20:20.381Z,90.05
2023-05-15T22:22:57.278Z,90.02
2023-05-15T22:25:36.817Z,89.92
2023-05-15T22:28:15.023Z,90.03
2023-05-15T22:30:59.087Z,89.90
2023-05-15T22:33:39.437Z,89.93
2023-05-15T22:36:15.059Z,89.75
2023-05-15T22:38:57.607Z,89.69
2023-05-15T22:41:33.349Z,89.71
2023-05-15T22:44:08.530Z,89.71
2023-05-15T22:46:47.321Z,89.69
2023-05-15T22:49:25.843Z,89.63
2023-05-15T22:52:00.736Z,89.71
2023-05-15T22:54:36.639Z,89.86
2023-05-15T22:57:13.679Z,89.91
2023-05-15T22:59:53.099Z,89.91
2023-05-15T23:02:36.844Z,89.84
2023-05-15T23:05:15.500Z,89.78
2023-05-15T23:07:51.703Z,89.72
2023-05-15T23:10:28.050Z,89.66
2023-05-15T23:13:04.965Z,89.70
2023-05-15T23:15:41.362Z,89.76
2023-05-15T23:18:18.427Z,89.85
2023-05-15T23:20:59.132Z,89.86
2023-05-15T23:23:41.396Z,89.91
2023-05-15T23:26:19.112Z,89.92
2023-05-15T23:28:56.773Z,89.97
2023-05-15T23:31:41.464Z,89.93
2023-05-15T23:34:17.583Z,90.09
2023-05-15T23:36:54.263Z,90.09
2023-05-15T23:39:30.467Z,90.16
2023-05-15T23:42:04.642Z,90.22
2023-05-15T23:44:42.393Z,90.26
2023-05-15T23:47:18.034Z,90.12
2023-05-15T23:49:56.421Z,90.12
2023-05-15T23:52:32.351Z,90.15
2023-05-15T23:55:15.405Z,90.31
2023-05-15T23:57:51.088Z,90.31
